Time;durP1;ratioP1;P1;durP2;ratioP2;P2;SDS_P1;SDS_P2;PMS_P1;PMS_P2;Temp;Humidity;BMP_temperature;BMP_pressure;BME280_temperature;BME280_humidity;BME280_pressure;Samples;Min_cycle;Max_cycle;Signal;HPM_P1;HPM_P2
2022/10/26 00:01:25;;;;;;;17.85;9.68;;;;;;;;;;4970813;28;20092;-66
2022/10/26 00:03:50;;;;;;;19.00;9.65;;;;;;;;;;4971042;28;20387;-66
2022/10/26 00:06:18;;;;;;;27.95;12.52;;;;;;;;;;4971428;28;20436;-66
2022/10/26 00:08:44;;;;;;;22.75;10.35;;;;;;;;;;4953216;28;20341;-66
2022/10/26 00:11:10;;;;;;;18.02;10.10;;;;;;;;;;4953234;28;20452;-66
2022/10/26 00:13:37;;;;;;;21.98;10.85;;;;;;;;;;4971996;28;20462;-66
2022/10/26 00:16:28;;;;;;;22.17;11.32;;;;;;;;;;4953037;28;20440;-66
2022/10/26 00:18:54;;;;;;;23.13;10.88;;;;;;;;;;4969594;28;20464;-66
2022/10/26 00:21:19;;;;;;;19.52;10.55;;;;;;;;;;4971659;28;20436;-66
2022/10/26 00:23:44;;;;;;;17.52;9.88;;;;;;;;;;4970933;28;20397;-66
2022/10/26 00:26:10;;;;;;;24.90;12.02;;;;;;;;;;4970628;28;20416;-67
2022/10/26 00:28:35;;;;;;;20.45;10.35;;;;;;;;;;4952715;28;20417;-66
2022/10/26 00:31:03;;;;;;;20.05;10.82;;;;;;;;;;4972025;28;20045;-66
2022/10/26 00:33:29;;;;;;;20.50;11.15;;;;;;;;;;4968814;28;20454;-66
2022/10/26 00:35:54;;;;;;;16.92;9.27;;;;;;;;;;4970590;28;20446;-66
2022/10/26 00:38:20;;;;;;;17.17;10.00;;;;;;;;;;4970688;28;20090;-66
2022/10/26 00:40:46;;;;;;;19.85;10.38;;;;;;;;;;4970926;28;20468;-66
2022/10/26 00:43:33;;;;;;;18.23;9.32;;;;;;;;;;4970354;28;20448;-67
2022/10/26 00:45:59;;;;;;;17.95;10.43;;;;;;;;;;4952712;28;20329;-66
2022/10/26 00:48:29;;;;;;;20.15;9.95;;;;;;;;;;4952239;28;20083;-66
2022/10/26 00:50:58;;;;;;;23.13;11.15;;;;;;;;;;4972106;28;20372;-66
2022/10/26 00:53:23;;;;;;;22.98;10.93;;;;;;;;;;4952758;28;20441;-66
2022/10/26 00:55:50;;;;;;;22.05;11.40;;;;;;;;;;4952342;28;20455;-66
2022/10/26 00:58:15;;;;;;;21.02;11.43;;;;;;;;;;4952296;28;20318;-66
2022/10/26 01:00:41;;;;;;;22.00;10.00;;;;;;;;;;4969584;28;20422;-67
2022/10/26 01:03:08;;;;;;;19.00;10.82;;;;;;;;;;4965668;28;20029;-66
2022/10/26 01:05:35;;;;;;;20.30;9.48;;;;;;;;;;4952762;28;20387;-66
2022/10/26 01:08:01;;;;;;;16.25;9.25;;;;;;;;;;4969803;28;20498;-66
2022/10/26 01:10:26;;;;;;;18.77;9.77;;;;;;;;;;4951603;28;20448;-66
2022/10/26 01:12:54;;;;;;;17.55;9.52;;;;;;;;;;4951835;28;20049;-66
2022/10/26 01:15:22;;;;;;;17.30;9.02;;;;;;;;;;4952382;28;20521;-66
2022/10/26 01:17:56;;;;;;;16.70;9.15;;;;;;;;;;4951805;28;20455;-66
2022/10/26 01:20:52;;;;;;;18.88;9.80;;;;;;;;;;4951759;28;20494;-66
2022/10/26 01:23:34;;;;;;;16.63;9.30;;;;;;;;;;4951840;28;20356;-66
2022/10/26 01:26:33;;;;;;;15.00;9.05;;;;;;;;;;4952097;28;20444;-66
2022/10/26 01:29:33;;;;;;;19.17;8.80;;;;;;;;;;4951907;28;20352;-66
2022/10/26 01:32:06;;;;;;;14.20;8.27;;;;;;;;;;4952905;28;20535;-66
2022/10/26 01:34:57;;;;;;;14.93;8.00;;;;;;;;;;4951612;28;20055;-66
2022/10/26 01:37:27;;;;;;;15.53;8.50;;;;;;;;;;4626434;28;10000913;-66
2022/10/26 01:40:07;;;;;;;16.50;9.15;;;;;;;;;;4969269;28;20496;-66
2022/10/26 01:42:34;;;;;;;19.23;8.95;;;;;;;;;;4969503;28;20451;-66
2022/10/26 01:45:08;;;;;;;15.02;8.85;;;;;;;;;;4951418;28;20425;-66
2022/10/26 01:47:35;;;;;;;15.48;8.85;;;;;;;;;;4951269;28;20107;-66
2022/10/26 01:50:01;;;;;;;14.82;8.48;;;;;;;;;;4951596;28;20025;-66
2022/10/26 01:52:27;;;;;;;13.52;8.13;;;;;;;;;;4951150;28;20477;-66
2022/10/26 01:55:04;;;;;;;12.88;7.88;;;;;;;;;;4968749;28;20384;-66
2022/10/26 01:57:32;;;;;;;15.60;8.32;;;;;;;;;;4968878;28;20393;-66
2022/10/26 02:00:09;;;;;;;13.48;7.90;;;;;;;;;;4951696;28;20029;-66
2022/10/26 02:02:46;;;;;;;16.33;8.07;;;;;;;;;;4951140;28;20452;-66
2022/10/26 02:05:19;;;;;;;13.68;7.78;;;;;;;;;;4970284;28;20336;-66
2022/10/26 02:08:06;;;;;;;14.50;7.68;;;;;;;;;;4951440;28;20427;-66
2022/10/26 02:10:49;;;;;;;11.73;7.20;;;;;;;;;;4968830;28;20487;-66
2022/10/26 02:13:23;;;;;;;11.98;6.80;;;;;;;;;;4968752;28;20460;-66
2022/10/26 02:15:58;;;;;;;11.90;7.47;;;;;;;;;;4950985;28;20424;-66
2022/10/26 02:18:52;;;;;;;12.52;7.65;;;;;;;;;;4950635;28;20360;-66
2022/10/26 02:21:20;;;;;;;11.68;7.05;;;;;;;;;;4968515;28;20344;-68
2022/10/26 02:23:47;;;;;;;14.60;8.02;;;;;;;;;;4951550;28;20436;-66
2022/10/26 02:26:15;;;;;;;14.98;8.35;;;;;;;;;;4968345;28;20178;-66
2022/10/26 02:28:43;;;;;;;17.65;8.52;;;;;;;;;;4951736;28;20467;-66
2022/10/26 02:31:10;;;;;;;13.10;7.88;;;;;;;;;;4946208;28;20046;-66
2022/10/26 02:33:39;;;;;;;18.30;8.55;;;;;;;;;;4948969;28;20038;-66
2022/10/26 02:36:07;;;;;;;14.38;8.25;;;;;;;;;;4931171;28;20384;-66
2022/10/26 02:38:34;;;;;;;14.00;8.13;;;;;;;;;;4930898;28;20420;-66
2022/10/26 02:41:00;;;;;;;21.48;9.80;;;;;;;;;;4931985;28;20463;-66
2022/10/26 02:43:26;;;;;;;20.67;10.20;;;;;;;;;;4931098;28;20437;-67
2022/10/26 02:45:55;;;;;;;23.08;7.85;;;;;;;;;;4930890;28;20395;-66
2022/10/26 02:48:21;;;;;;;13.95;7.78;;;;;;;;;;4948795;28;20072;-66
2022/10/26 02:50:55;;;;;;;11.98;7.03;;;;;;;;;;4948633;28;20567;-66
2022/10/26 02:53:23;;;;;;;13.73;7.68;;;;;;;;;;4930849;28;20349;-67
2022/10/26 02:55:49;;;;;;;13.18;8.35;;;;;;;;;;4948898;28;20405;-66
2022/10/26 02:58:25;;;;;;;13.85;8.02;;;;;;;;;;4931099;28;20034;-66
2022/10/26 03:00:51;;;;;;;13.52;7.50;;;;;;;;;;4931016;28;20460;-66
2022/10/26 03:03:17;;;;;;;13.77;7.65;;;;;;;;;;4948664;28;20429;-66
2022/10/26 03:05:42;;;;;;;14.07;7.65;;;;;;;;;;4948407;28;20434;-66
2022/10/26 03:08:08;;;;;;;17.75;7.15;;;;;;;;;;4948594;28;20433;-66
2022/10/26 03:10:39;;;;;;;13.68;7.75;;;;;;;;;;4930566;28;20376;-66
2022/10/26 03:13:05;;;;;;;11.13;7.30;;;;;;;;;;4949547;28;20487;-66
2022/10/26 03:15:30;;;;;;;17.05;8.60;;;;;;;;;;4948443;28;20449;-66
2022/10/26 03:17:55;;;;;;;20.65;8.93;;;;;;;;;;4930753;28;20349;-66
2022/10/26 03:20:21;;;;;;;18.75;9.48;;;;;;;;;;4948808;28;20496;-66
2022/10/26 03:22:47;;;;;;;15.63;8.25;;;;;;;;;;4948376;28;20480;-66
2022/10/26 03:25:14;;;;;;;16.35;8.38;;;;;;;;;;4930719;28;20341;-66
2022/10/26 03:27:39;;;;;;;14.05;8.00;;;;;;;;;;4949641;28;20409;-66
2022/10/26 03:30:05;;;;;;;17.85;8.00;;;;;;;;;;4949198;28;20488;-66
2022/10/26 03:32:31;;;;;;;12.18;7.20;;;;;;;;;;4963055;28;20120;-66
2022/10/26 03:34:56;;;;;;;13.23;6.90;;;;;;;;;;4972439;28;20126;-68
2022/10/26 03:37:21;;;;;;;14.70;6.78;;;;;;;;;;4972019;28;20143;-66
2022/10/26 03:39:47;;;;;;;10.38;6.20;;;;;;;;;;4971669;28;20424;-66
2022/10/26 03:42:12;;;;;;;14.60;7.50;;;;;;;;;;4971279;28;20403;-66
2022/10/26 03:44:37;;;;;;;13.43;6.50;;;;;;;;;;4972600;28;20417;-66
2022/10/26 03:47:03;;;;;;;11.10;6.85;;;;;;;;;;4971628;28;20444;-66
2022/10/26 03:49:28;;;;;;;11.65;6.60;;;;;;;;;;4971238;28;20167;-66
2022/10/26 03:51:53;;;;;;;12.23;6.25;;;;;;;;;;4972975;28;20466;-68
2022/10/26 03:54:18;;;;;;;11.35;6.45;;;;;;;;;;4972898;28;20444;-66
2022/10/26 03:56:44;;;;;;;15.75;8.52;;;;;;;;;;4971360;28;20444;-66
2022/10/26 03:59:09;;;;;;;13.10;6.55;;;;;;;;;;4971331;28;20459;-66
2022/10/26 04:01:34;;;;;;;12.35;7.47;;;;;;;;;;4972685;28;20336;-66
2022/10/26 04:04:00;;;;;;;12.60;7.53;;;;;;;;;;4971146;28;20349;-66
2022/10/26 04:06:25;;;;;;;10.30;6.40;;;;;;;;;;4973056;28;20618;-66
2022/10/26 04:08:52;;;;;;;15.25;6.90;;;;;;;;;;4970869;28;20433;-66
2022/10/26 04:11:17;;;;;;;12.80;7.40;;;;;;;;;;4970949;28;20387;-66
2022/10/26 04:13:43;;;;;;;12.57;6.63;;;;;;;;;;4971171;28;20341;-66
2022/10/26 04:16:08;;;;;;;11.48;6.18;;;;;;;;;;4970760;28;20467;-66
2022/10/26 04:18:33;;;;;;;14.13;7.03;;;;;;;;;;4953042;28;20428;-66
2022/10/26 04:21:02;;;;;;;10.77;6.85;;;;;;;;;;4970916;28;20128;-66
2022/10/26 04:23:27;;;;;;;14.02;7.80;;;;;;;;;;4970977;28;20135;-66
2022/10/26 04:25:52;;;;;;;13.70;7.60;;;;;;;;;;4971053;28;20131;-66
2022/10/26 04:28:18;;;;;;;15.75;7.50;;;;;;;;;;4972033;28;20052;-66
2022/10/26 04:30:43;;;;;;;19.58;8.77;;;;;;;;;;4971759;28;20336;-66
2022/10/26 04:33:08;;;;;;;19.52;10.18;;;;;;;;;;4970355;28;20420;-66
2022/10/26 04:35:34;;;;;;;28.73;12.13;;;;;;;;;;4970468;28;20448;-67
2022/10/26 04:38:00;;;;;;;33.85;13.52;;;;;;;;;;4970565;28;20460;-66
2022/10/26 04:40:29;;;;;;;34.47;12.48;;;;;;;;;;4970838;28;20424;-66
2022/10/26 04:42:54;;;;;;;24.15;12.70;;;;;;;;;;4971467;28;20404;-66
2022/10/26 04:45:20;;;;;;;22.35;10.57;;;;;;;;;;4969096;28;20112;-66
2022/10/26 04:47:45;;;;;;;17.98;8.43;;;;;;;;;;4970310;28;20088;-66
2022/10/26 04:50:11;;;;;;;17.35;8.65;;;;;;;;;;4970197;28;20407;-66
2022/10/26 04:52:39;;;;;;;13.55;8.60;;;;;;;;;;4952502;28;20530;-66
2022/10/26 04:55:05;;;;;;;15.55;8.30;;;;;;;;;;4970522;28;20441;-66
2022/10/26 04:57:34;;;;;;;13.20;7.63;;;;;;;;;;4952160;28;20321;-66
2022/10/26 05:00:00;;;;;;;15.07;7.93;;;;;;;;;;4969906;28;20436;-66
2022/10/26 05:02:29;;;;;;;15.88;8.45;;;;;;;;;;4952897;28;20425;-66
2022/10/26 05:04:54;;;;;;;12.73;7.05;;;;;;;;;;4970421;28;20440;-66
2022/10/26 05:07:19;;;;;;;14.15;7.45;;;;;;;;;;4970110;28;20415;-66
2022/10/26 05:09:45;;;;;;;15.73;7.85;;;;;;;;;;4971747;28;20441;-66
2022/10/26 05:12:11;;;;;;;14.50;7.03;;;;;;;;;;4969807;28;20049;-66
2022/10/26 05:14:36;;;;;;;13.70;6.80;;;;;;;;;;4969855;28;20356;-66
2022/10/26 05:17:01;;;;;;;15.05;7.40;;;;;;;;;;4971819;28;20451;-66
2022/10/26 05:19:27;;;;;;;11.63;6.75;;;;;;;;;;4969932;28;20432;-66
2022/10/26 05:21:52;;;;;;;13.65;7.50;;;;;;;;;;4626452;28;10001253;-66
2022/10/26 05:24:18;;;;;;;12.77;7.10;;;;;;;;;;4969833;28;20044;-66
2022/10/26 05:26:43;;;;;;;13.48;7.35;;;;;;;;;;4969545;28;20433;-66
2022/10/26 05:29:09;;;;;;;14.20;6.68;;;;;;;;;;4951704;28;20112;-66
2022/10/26 05:31:34;;;;;;;11.43;7.20;;;;;;;;;;4969236;28;20053;-66
2022/10/26 05:33:59;;;;;;;11.27;6.28;;;;;;;;;;4969394;28;20326;-66
2022/10/26 05:36:24;;;;;;;13.15;6.97;;;;;;;;;;4970587;28;20200;-66
2022/10/26 05:38:50;;;;;;;11.68;6.80;;;;;;;;;;4969460;28;20492;-66
2022/10/26 05:41:15;;;;;;;17.92;6.82;;;;;;;;;;4969244;28;20487;-66
2022/10/26 05:43:40;;;;;;;12.77;6.93;;;;;;;;;;4971157;28;20519;-66
2022/10/26 05:46:06;;;;;;;9.77;5.95;;;;;;;;;;4969633;28;20425;-66
2022/10/26 05:48:31;;;;;;;13.52;7.72;;;;;;;;;;4969114;28;20400;-67
2022/10/26 05:51:00;;;;;;;14.05;7.57;;;;;;;;;;4969846;28;20389;-66
2022/10/26 05:53:25;;;;;;;15.93;9.10;;;;;;;;;;4969167;28;20420;-66
2022/10/26 05:55:51;;;;;;;19.70;12.02;;;;;;;;;;4968723;28;20360;-66
2022/10/26 05:58:17;;;;;;;22.83;12.85;;;;;;;;;;4968711;28;20522;-66
2022/10/26 06:00:51;;;;;;;18.85;10.27;;;;;;;;;;4970948;28;20353;-66
2022/10/26 06:03:32;;;;;;;15.18;8.63;;;;;;;;;;4951360;28;20460;-66
2022/10/26 06:05:58;;;;;;;14.77;8.55;;;;;;;;;;4970056;28;20420;-66
2022/10/26 06:08:27;;;;;;;19.45;8.13;;;;;;;;;;4969571;28;20429;-66
2022/10/26 06:10:53;;;;;;;;;;;;;;;;;;4969295;28;20435;-66
2022/10/26 06:13:19;;;;;;;16.63;7.30;;;;;;;;;;4951247;28;20314;-66
2022/10/26 06:15:58;;;;;;;15.73;8.73;;;;;;;;;;4969761;28;20340;-66
2022/10/26 06:18:46;;;;;;;16.25;9.23;;;;;;;;;;4968778;28;20437;-66
2022/10/26 06:21:37;;;;;;;15.95;9.75;;;;;;;;;;4961624;28;20405;-66
2022/10/26 06:24:17;;;;;;;13.52;7.55;;;;;;;;;;4968778;28;20445;-66
2022/10/26 06:27:09;;;;;;;13.98;7.20;;;;;;;;;;4950649;28;20021;-66
2022/10/26 06:29:47;;;;;;;15.45;8.25;;;;;;;;;;4968318;28;20471;-66
2022/10/26 06:32:12;;;;;;;13.48;8.10;;;;;;;;;;4938101;28;20363;-66
2022/10/26 06:34:44;;;;;;;17.33;6.85;;;;;;;;;;4948501;28;20042;-66
2022/10/26 06:37:10;;;;;;;13.88;8.05;;;;;;;;;;4950156;28;20416;-66
2022/10/26 06:39:38;;;;;;;13.15;7.22;;;;;;;;;;4931069;28;20392;-66
2022/10/26 06:42:04;;;;;;;15.60;8.18;;;;;;;;;;4930807;28;20344;-68
2022/10/26 06:44:30;;;;;;;12.60;7.40;;;;;;;;;;4948592;28;20372;-66
2022/10/26 06:47:01;;;;;;;15.65;8.70;;;;;;;;;;4949934;28;20426;-66
2022/10/26 06:49:40;;;;;;;19.13;8.40;;;;;;;;;;4948403;28;20057;-66
2022/10/26 06:52:30;;;;;;;16.50;8.27;;;;;;;;;;4930981;28;20440;-67
2022/10/26 06:54:56;;;;;;;15.85;8.57;;;;;;;;;;4948305;28;20091;-66
2022/10/26 06:57:23;;;;;;;17.50;9.18;;;;;;;;;;4948231;28;20042;-66
2022/10/26 06:59:59;;;;;;;22.00;10.38;;;;;;;;;;4931319;28;20388;-66
2022/10/26 07:02:25;;;;;;;22.73;11.68;;;;;;;;;;4930615;28;20453;-66
2022/10/26 07:04:50;;;;;;;19.83;9.40;;;;;;;;;;4948329;28;20495;-66
2022/10/26 07:07:24;;;;;;;17.17;9.75;;;;;;;;;;4948560;28;20499;-66
2022/10/26 07:09:49;;;;;;;17.48;9.50;;;;;;;;;;4949995;28;20022;-66
2022/10/26 07:12:15;;;;;;;15.23;10.45;;;;;;;;;;4930564;28;20429;-66
2022/10/26 07:14:40;;;;;;;15.75;9.20;;;;;;;;;;4948087;28;20465;-67
2022/10/26 07:17:05;;;;;;;14.25;8.45;;;;;;;;;;4949469;28;20421;-66
2022/10/26 07:19:31;;;;;;;15.40;8.65;;;;;;;;;;4948369;28;20429;-66
2022/10/26 07:21:58;;;;;;;21.33;11.07;;;;;;;;;;4948114;28;20430;-66
2022/10/26 07:24:24;;;;;;;22.63;12.02;;;;;;;;;;4932042;28;20088;-66
2022/10/26 07:26:49;;;;;;;18.60;10.25;;;;;;;;;;4948360;28;20030;-66
2022/10/26 07:29:17;;;;;;;19.48;10.02;;;;;;;;;;4948928;28;20409;-66
2022/10/26 07:31:43;;;;;;;22.15;9.25;;;;;;;;;;4956090;28;20361;-66
2022/10/26 07:34:08;;;;;;;15.57;9.93;;;;;;;;;;4969035;28;20400;-67
2022/10/26 07:36:35;;;;;;;18.42;8.90;;;;;;;;;;4967654;28;20544;-66
2022/10/26 07:39:02;;;;;;;18.13;10.43;;;;;;;;;;4967492;28;20353;-66
2022/10/26 07:41:27;;;;;;;18.35;10.00;;;;;;;;;;4949877;28;20460;-66
2022/10/26 07:43:52;;;;;;;20.92;10.75;;;;;;;;;;4969237;28;20475;-66
2022/10/26 07:46:17;;;;;;;18.13;10.20;;;;;;;;;;4967562;28;20458;-66
2022/10/26 07:48:43;;;;;;;20.20;10.68;;;;;;;;;;4968037;28;20433;-66
2022/10/26 07:51:08;;;;;;;20.13;9.77;;;;;;;;;;4969460;28;20421;-67
2022/10/26 07:53:33;;;;;;;23.35;12.70;;;;;;;;;;4967523;28;20472;-66
2022/10/26 07:55:59;;;;;;;34.67;13.60;;;;;;;;;;4967729;28;20022;-66
2022/10/26 07:58:26;;;;;;;21.77;9.93;;;;;;;;;;4968640;28;20449;-66
2022/10/26 08:00:52;;;;;;;25.58;11.48;;;;;;;;;;4969235;28;20374;-66
2022/10/26 08:03:17;;;;;;;31.40;12.00;;;;;;;;;;4967590;28;20463;-66
2022/10/26 08:05:54;;;;;;;25.60;10.38;;;;;;;;;;4967283;28;20424;-66
2022/10/26 08:08:19;;;;;;;19.30;8.55;;;;;;;;;;4967274;28;20356;-66
2022/10/26 08:10:45;;;;;;;22.25;8.35;;;;;;;;;;4967535;28;20388;-67
2022/10/26 08:13:11;;;;;;;14.50;8.98;;;;;;;;;;4967578;28;20507;-66
2022/10/26 08:15:37;;;;;;;19.10;9.25;;;;;;;;;;4967177;28;20482;-66
2022/10/26 08:18:03;;;;;;;17.05;8.55;;;;;;;;;;4967326;28;20055;-66
2022/10/26 08:20:29;;;;;;;16.98;8.18;;;;;;;;;;4969967;28;20383;-66
2022/10/26 08:22:58;;;;;;;16.92;7.90;;;;;;;;;;4970606;28;20357;-66
2022/10/26 08:25:24;;;;;;;13.90;7.95;;;;;;;;;;4952831;28;20376;-66
2022/10/26 08:27:49;;;;;;;14.25;7.05;;;;;;;;;;4970485;28;20368;-66
2022/10/26 08:30:15;;;;;;;13.45;6.97;;;;;;;;;;4972194;28;20069;-66
2022/10/26 08:32:41;;;;;;;18.65;7.90;;;;;;;;;;4970568;28;20518;-66
2022/10/26 08:35:07;;;;;;;12.02;7.25;;;;;;;;;;4970330;28;20348;-69
2022/10/26 08:37:33;;;;;;;11.52;6.05;;;;;;;;;;4953396;28;20313;-66
2022/10/26 08:39:58;;;;;;;13.52;6.88;;;;;;;;;;4971099;28;20029;-66
2022/10/26 08:42:31;;;;;;;15.35;6.55;;;;;;;;;;4970821;28;20340;-66
2022/10/26 08:45:01;;;;;;;15.00;6.90;;;;;;;;;;4970801;28;20452;-66
2022/10/26 08:47:53;;;;;;;10.60;6.80;;;;;;;;;;4952249;28;20460;-66
2022/10/26 08:50:25;;;;;;;12.90;6.60;;;;;;;;;;4969578;28;20033;-66
2022/10/26 08:53:02;;;;;;;14.80;7.00;;;;;;;;;;4971272;28;20443;-65
2022/10/26 08:55:38;;;;;;;11.85;6.65;;;;;;;;;;4969998;28;20115;-66
2022/10/26 08:58:05;;;;;;;13.48;6.95;;;;;;;;;;4952412;28;20411;-66
2022/10/26 09:00:31;;;;;;;14.43;6.40;;;;;;;;;;4952260;28;20464;-66
2022/10/26 09:02:56;;;;;;;13.60;6.88;;;;;;;;;;4971385;28;20471;-66
2022/10/26 09:05:28;;;;;;;14.27;7.85;;;;;;;;;;4969833;28;20340;-66
2022/10/26 09:08:30;;;;;;;11.35;6.45;;;;;;;;;;4969534;28;20444;-65
2022/10/26 09:11:09;;;;;;;20.65;6.82;;;;;;;;;;4970322;28;20436;-65
2022/10/26 09:13:46;;;;;;;11.63;7.03;;;;;;;;;;4952379;28;20330;-66
2022/10/26 09:16:36;;;;;;;8.38;4.78;;;;;;;;;;4969683;28;20026;-66
2022/10/26 09:19:30;;;;;;;13.73;4.72;;;;;;;;;;4969856;28;20452;-66
2022/10/26 09:22:17;;;;;;;9.07;5.10;;;;;;;;;;4969824;28;20452;-66
2022/10/26 09:24:50;;;;;;;8.02;4.80;;;;;;;;;;4969556;28;20079;-66
2022/10/26 09:27:19;;;;;;;12.13;5.40;;;;;;;;;;4969476;28;20095;-65
2022/10/26 09:29:44;;;;;;;8.95;5.60;;;;;;;;;;4951668;28;20447;-66
2022/10/26 09:32:20;;;;;;;11.88;5.15;;;;;;;;;;4939908;28;20385;-65
2022/10/26 09:34:52;;;;;;;11.82;4.45;;;;;;;;;;4932082;28;20060;-66
2022/10/26 09:37:47;;;;;;;9.85;5.57;;;;;;;;;;4949618;28;20392;-66
2022/10/26 09:40:23;;;;;;;7.72;4.85;;;;;;;;;;4950360;28;20437;-65
2022/10/26 09:43:00;;;;;;;13.73;4.30;;;;;;;;;;4932215;28;20025;-65
2022/10/26 09:45:37;;;;;;;7.13;4.35;;;;;;;;;;4949685;28;20503;-65
2022/10/26 09:48:15;;;;;;;9.65;4.80;;;;;;;;;;4949440;28;20456;-65
2022/10/26 09:50:45;;;;;;;8.32;4.60;;;;;;;;;;4949570;28;20030;-65
2022/10/26 09:53:11;;;;;;;8.35;4.68;;;;;;;;;;4931805;28;20029;-65
2022/10/26 09:55:40;;;;;;;10.15;4.60;;;;;;;;;;4949611;28;20433;-65
2022/10/26 09:58:12;;;;;;;6.97;4.32;;;;;;;;;;4931703;28;20459;-65
2022/10/26 10:00:38;;;;;;;7.70;4.68;;;;;;;;;;4931623;28;20467;-66
2022/10/26 10:03:23;;;;;;;12.35;4.07;;;;;;;;;;4931486;28;20429;-65
2022/10/26 10:05:49;;;;;;;8.13;4.07;;;;;;;;;;4949435;28;20372;-65
2022/10/26 10:08:19;;;;;;;7.07;4.47;;;;;;;;;;4949252;28;20392;-66
2022/10/26 10:11:06;;;;;;;7.95;4.40;;;;;;;;;;4948847;28;20372;-65
2022/10/26 10:13:34;;;;;;;6.95;3.97;;;;;;;;;;4948971;28;20468;-65
2022/10/26 10:16:01;;;;;;;7.40;4.10;;;;;;;;;;4949135;28;20053;-65
2022/10/26 10:18:26;;;;;;;6.72;4.45;;;;;;;;;;4949356;28;20095;-65
2022/10/26 10:20:56;;;;;;;8.98;4.35;;;;;;;;;;4949071;28;20033;-65
2022/10/26 10:23:26;;;;;;;8.32;4.60;;;;;;;;;;4931140;28;20437;-65
2022/10/26 10:26:07;;;;;;;9.07;3.92;;;;;;;;;;4950735;28;20388;-65
2022/10/26 10:28:33;;;;;;;8.60;4.10;;;;;;;;;;4949829;28;20466;-65
2022/10/26 10:31:01;;;;;;;8.10;3.25;;;;;;;;;;4932652;28;20053;-65
2022/10/26 10:33:39;;;;;;;7.15;4.40;;;;;;;;;;4968188;28;20448;-65
2022/10/26 10:36:09;;;;;;;7.65;4.10;;;;;;;;;;4950328;28;20029;-65
2022/10/26 10:38:39;;;;;;;8.10;3.67;;;;;;;;;;4950275;28;20576;-65
2022/10/26 10:41:05;;;;;;;7.55;4.00;;;;;;;;;;4950481;28;20120;-65
2022/10/26 10:43:30;;;;;;;8.10;4.10;;;;;;;;;;4968653;28;20510;-65
2022/10/26 10:45:57;;;;;;;8.38;4.10;;;;;;;;;;4950159;28;20033;-65
2022/10/26 10:48:26;;;;;;;5.93;3.95;;;;;;;;;;4951300;28;20025;-65
2022/10/26 10:51:03;;;;;;;9.40;3.33;;;;;;;;;;4950364;28;20432;-65
2022/10/26 10:53:43;;;;;;;7.10;4.07;;;;;;;;;;4950020;28;20422;-65
2022/10/26 10:56:20;;;;;;;6.85;3.90;;;;;;;;;;4968378;28;20456;-65
2022/10/26 10:59:05;;;;;;;7.22;3.80;;;;;;;;;;4968020;28;20456;-66
2022/10/26 11:01:42;;;;;;;5.25;3.35;;;;;;;;;;4949989;28;20510;-65
2022/10/26 11:04:38;;;;;;;6.28;3.42;;;;;;;;;;4949840;28;20490;-65
2022/10/26 11:07:05;;;;;;;8.18;3.80;;;;;;;;;;4968521;28;20033;-65
2022/10/26 11:09:32;;;;;;;6.80;3.40;;;;;;;;;;4967694;28;20471;-66
2022/10/26 11:12:27;;;;;;;5.78;3.47;;;;;;;;;;4950067;28;20422;-65
2022/10/26 11:14:57;;;;;;;5.40;3.17;;;;;;;;;;4967605;28;20444;-65
2022/10/26 11:17:49;;;;;;;6.22;3.10;;;;;;;;;;4967822;28;20030;-65
2022/10/26 11:20:18;;;;;;;6.20;3.50;;;;;;;;;;4967456;28;20045;-65
2022/10/26 11:23:10;;;;;;;9.82;3.75;;;;;;;;;;4951136;28;20324;-65
2022/10/26 11:25:43;;;;;;;6.45;3.42;;;;;;;;;;4967512;28;20448;-65
2022/10/26 11:28:16;;;;;;;6.30;2.97;;;;;;;;;;4950112;28;20443;-65
2022/10/26 11:30:46;;;;;;;7.35;3.20;;;;;;;;;;4949763;28;20475;-65
2022/10/26 11:33:19;;;;;;;6.78;3.42;;;;;;;;;;4967489;28;20461;-65
2022/10/26 11:35:55;;;;;;;6.20;3.45;;;;;;;;;;4949667;28;20479;-65
2022/10/26 11:38:43;;;;;;;6.18;2.65;;;;;;;;;;4967929;28;20310;-65
2022/10/26 11:41:24;;;;;;;7.38;2.97;;;;;;;;;;4967287;28;20460;-65
2022/10/26 11:44:08;;;;;;;7.50;3.33;;;;;;;;;;4949739;28;20322;-65
2022/10/26 11:46:44;;;;;;;5.93;3.10;;;;;;;;;;4949914;28;20347;-65
2022/10/26 11:49:20;;;;;;;5.38;2.58;;;;;;;;;;4949866;28;20033;-65
2022/10/26 11:51:54;;;;;;;4.65;2.88;;;;;;;;;;4967477;28;20402;-65
2022/10/26 11:54:44;;;;;;;4.63;2.50;;;;;;;;;;4968807;28;20472;-65
2022/10/26 11:57:10;;;;;;;5.70;2.78;;;;;;;;;;4970896;28;20390;-65
2022/10/26 11:59:43;;;;;;;5.75;2.67;;;;;;;;;;4953543;28;20362;-65
2022/10/26 12:02:17;;;;;;;6.57;3.10;;;;;;;;;;4971775;28;20033;-65
2022/10/26 12:04:46;;;;;;;4.90;2.83;;;;;;;;;;4971320;28;20430;-65
2022/10/26 12:07:25;;;;;;;4.65;2.72;;;;;;;;;;4970981;28;20424;-65
2022/10/26 12:09:51;;;;;;;8.15;3.20;;;;;;;;;;4972842;28;20342;-65
2022/10/26 12:12:23;;;;;;;6.03;3.08;;;;;;;;;;4953220;28;20411;-65
2022/10/26 12:14:53;;;;;;;4.45;2.55;;;;;;;;;;4952886;28;20080;-65
2022/10/26 12:17:25;;;;;;;4.38;2.75;;;;;;;;;;4972835;28;20408;-65
2022/10/26 12:20:05;;;;;;;6.18;2.33;;;;;;;;;;4953044;28;20026;-65
2022/10/26 12:22:36;;;;;;;5.93;2.60;;;;;;;;;;4971098;28;20056;-65
2022/10/26 12:25:14;;;;;;;4.03;2.38;;;;;;;;;;4953551;28;20029;-65
2022/10/26 12:27:39;;;;;;;5.25;2.65;;;;;;;;;;4970609;28;20452;-65
2022/10/26 12:30:10;;;;;;;5.78;2.65;;;;;;;;;;4970845;28;20499;-65
2022/10/26 12:32:36;;;;;;;7.80;2.92;;;;;;;;;;4970790;28;20494;-65
2022/10/26 12:35:23;;;;;;;6.78;2.53;;;;;;;;;;4970344;28;20380;-65
2022/10/26 12:37:48;;;;;;;6.00;2.67;;;;;;;;;;4971817;28;20460;-64
2022/10/26 12:40:32;;;;;;;5.93;2.70;;;;;;;;;;4971467;28;20486;-65
2022/10/26 12:43:17;;;;;;;5.07;2.50;;;;;;;;;;4970285;28;20460;-65
2022/10/26 12:46:02;;;;;;;4.78;2.65;;;;;;;;;;4970330;28;20376;-64
2022/10/26 12:48:45;;;;;;;4.38;2.28;;;;;;;;;;4953058;28;20471;-65
2022/10/26 12:51:25;;;;;;;7.07;2.45;;;;;;;;;;4970268;28;20345;-65
2022/10/26 12:53:56;;;;;;;4.15;2.22;;;;;;;;;;4970054;28;20112;-65
2022/10/26 12:56:47;;;;;;;4.47;2.38;;;;;;;;;;4970039;28;20436;-65
2022/10/26 12:59:24;;;;;;;5.95;2.40;;;;;;;;;;4970051;28;20452;-65
2022/10/26 13:02:06;;;;;;;4.25;3.00;;;;;;;;;;4970230;28;20483;-65
2022/10/26 13:04:42;;;;;;;5.78;2.80;;;;;;;;;;4952177;28;20052;-64
2022/10/26 13:07:26;;;;;;;6.18;3.15;;;;;;;;;;4951126;28;20046;-65
2022/10/26 13:09:55;;;;;;;4.65;2.35;;;;;;;;;;4952624;28;20355;-64
2022/10/26 13:12:20;;;;;;;4.22;2.65;;;;;;;;;;4969656;28;20493;-65
2022/10/26 13:15:01;;;;;;;5.30;2.35;;;;;;;;;;4970015;28;20616;-64
2022/10/26 13:17:28;;;;;;;4.32;2.65;;;;;;;;;;4970791;28;20447;-64
2022/10/26 13:19:56;;;;;;;4.00;2.45;;;;;;;;;;4969689;28;20401;-65
2022/10/26 13:22:23;;;;;;;4.75;2.67;;;;;;;;;;4952064;28;20436;-64
2022/10/26 13:25:03;;;;;;;3.70;2.15;;;;;;;;;;4969554;28;20426;-64
2022/10/26 13:27:31;;;;;;;4.43;2.50;;;;;;;;;;4969806;28;20440;-65
2022/10/26 13:30:02;;;;;;;4.55;2.47;;;;;;;;;;4970180;28;20571;-64
2022/10/26 13:32:49;;;;;;;3.95;2.28;;;;;;;;;;4968913;28;20595;-66
2022/10/26 13:35:15;;;;;;;4.60;2.28;;;;;;;;;;4951595;28;20361;-64
2022/10/26 13:37:43;;;;;;;3.15;1.98;;;;;;;;;;4971896;28;20328;-64
2022/10/26 13:40:11;;;;;;;3.20;2.07;;;;;;;;;;4969525;28;20506;-64
2022/10/26 13:42:52;;;;;;;4.90;2.30;;;;;;;;;;4951656;28;20372;-64
2022/10/26 13:45:20;;;;;;;9.85;2.40;;;;;;;;;;4968968;28;20360;-64
2022/10/26 13:48:05;;;;;;;3.88;2.33;;;;;;;;;;4951230;28;20344;-64
2022/10/26 13:50:45;;;;;;;2.85;2.13;;;;;;;;;;4951239;28;20460;-65
2022/10/26 13:53:22;;;;;;;5.43;1.95;;;;;;;;;;4969458;28;20440;-64
2022/10/26 13:56:04;;;;;;;3.67;2.17;;;;;;;;;;4625410;28;10001133;-64
2022/10/26 13:58:30;;;;;;;4.45;2.53;;;;;;;;;;4950961;28;20467;-65
2022/10/26 14:01:14;;;;;;;3.72;2.15;;;;;;;;;;4970183;28;20448;-64
2022/10/26 14:03:41;;;;;;;4.80;2.78;;;;;;;;;;4968747;28;20415;-64
2022/10/26 14:06:07;;;;;;;3.78;2.28;;;;;;;;;;4968708;28;20444;-64
2022/10/26 14:08:32;;;;;;;3.45;2.15;;;;;;;;;;4968765;28;20463;-64
2022/10/26 14:10:58;;;;;;;3.67;2.33;;;;;;;;;;4968935;28;20501;-64
2022/10/26 14:13:25;;;;;;;4.00;2.33;;;;;;;;;;4968954;28;20436;-64
2022/10/26 14:15:52;;;;;;;3.70;2.13;;;;;;;;;;4951438;28;20503;-64
2022/10/26 14:18:23;;;;;;;3.83;2.17;;;;;;;;;;4968334;28;20132;-64
2022/10/26 14:20:56;;;;;;;4.68;2.20;;;;;;;;;;4968460;28;20333;-64
2022/10/26 14:23:35;;;;;;;3.47;2.10;;;;;;;;;;4970854;28;20387;-64
2022/10/26 14:26:01;;;;;;;4.35;2.47;;;;;;;;;;4968278;28;20381;-67
2022/10/26 14:28:29;;;;;;;3.47;1.92;;;;;;;;;;4969483;28;20472;-64
2022/10/26 14:31:13;;;;;;;3.67;1.90;;;;;;;;;;4967734;28;20025;-64
2022/10/26 14:33:38;;;;;;;3.78;2.20;;;;;;;;;;4970283;28;20502;-64
2022/10/26 14:36:04;;;;;;;4.05;2.10;;;;;;;;;;4968850;28;20344;-65
2022/10/26 14:38:31;;;;;;;2.92;2.17;;;;;;;;;;4950744;28;20395;-64
2022/10/26 14:40:57;;;;;;;4.90;2.97;;;;;;;;;;4950715;28;20056;-64
2022/10/26 14:43:23;;;;;;;5.47;2.33;;;;;;;;;;4968170;28;20519;-64
2022/10/26 14:45:51;;;;;;;3.55;1.95;;;;;;;;;;4950640;28;20359;-64
2022/10/26 14:48:22;;;;;;;4.95;2.20;;;;;;;;;;4969059;28;20424;-64
2022/10/26 14:51:14;;;;;;;3.40;2.47;;;;;;;;;;4967892;28;20292;-64
2022/10/26 14:53:40;;;;;;;3.65;2.20;;;;;;;;;;4968291;28;20352;-64
2022/10/26 14:56:19;;;;;;;4.20;2.38;;;;;;;;;;4950254;28;20029;-64